Time;durP1;ratioP1;P1;durP2;ratioP2;P2;SDS_P1;SDS_P2;PMS_P1;PMS_P2;Temp;Humidity;BMP_temperature;BMP_pressure;BME280_temperature;BME280_humidity;BME280_pressure;Samples;Min_cycle;Max_cycle;Signal;HPM_P1;HPM_P2
2022/10/19 00:01:02;;;;;;;;;;;;;;;20.35;61.06;101514.69;7405226;19;1759;-35
2022/10/19 00:03:30;;;;;;;;;;;;;;;20.36;61.16;101519.09;7404955;19;1597;-36
2022/10/19 00:05:59;;;;;;;;;;;;;;;20.37;61.20;101515.41;7406246;19;1168;-36
2022/10/19 00:08:27;;;;;;;;;;;;;;;20.37;60.97;101510.03;7404693;19;2055;-36
2022/10/19 00:10:55;;;;;;;;;;;;;;;20.37;60.92;101518.09;7402392;19;1865;-36
2022/10/19 00:13:26;;;;;;;;;;;;;;;20.37;61.07;101515.41;7404301;19;1791;-37
2022/10/19 00:15:54;;;;;;;;;;;;;;;20.38;60.93;101506.41;7406022;19;1683;-35
2022/10/19 00:18:23;;;;;;;;;;;;;;;20.37;61.22;101500.19;7404727;19;1745;-35
2022/10/19 00:20:51;;;;;;;;;;;;;;;20.36;61.14;101503.81;7404882;19;1800;-35
2022/10/19 00:23:19;;;;;;;;;;;;;;;20.33;60.82;101497.84;7404534;19;1952;-35
2022/10/19 00:25:56;;;;;;;;;;;;;;;20.36;61.00;101500.28;7403598;19;1977;-36
2022/10/19 00:28:26;;;;;;;;;;;;;;;20.35;61.21;101490.50;7402683;19;1699;-36
2022/10/19 00:30:55;;;;;;;;;;;;;;;20.34;60.95;101478.09;7403165;19;1867;-36
2022/10/19 00:33:23;;;;;;;;;;;;;;;20.34;60.95;101478.09;7403721;19;1771;-36
2022/10/19 00:35:52;;;;;;;;;;;;;;;20.33;60.95;101476.38;7405316;19;1975;-36
2022/10/19 00:38:21;;;;;;;;;;;;;;;20.31;60.76;101464.88;7403438;19;1585;-36
2022/10/19 00:40:50;;;;;;;;;;;;;;;20.29;60.78;101464.16;7400231;19;1929;-37
2022/10/19 00:43:19;;;;;;;;;;;;;;;20.30;60.63;101452.47;7401577;19;1789;-36
2022/10/19 00:45:50;;;;;;;;;;;;;;;20.35;60.93;101474.41;7403141;19;1556;-36
2022/10/19 00:48:20;;;;;;;;;;;;;;;20.29;61.04;101458.78;7404771;19;1600;-35
2022/10/19 00:50:49;;;;;;;;;;;;;;;20.29;60.78;101453.41;7403549;19;1963;-35
2022/10/19 00:53:17;;;;;;;;;;;;;;;20.27;60.87;101459.78;7402754;19;1711;-35
2022/10/19 00:55:46;;;;;;;;;;;;;;;20.27;60.86;101454.41;7403716;19;1859;-36
2022/10/19 00:58:15;;;;;;;;;;;;;;;20.25;60.74;101437.59;7402006;19;1779;-35
2022/10/19 01:00:43;;;;;;;;;;;;;;;20.25;60.52;101432.22;7403041;19;1873;-35
2022/10/19 01:03:15;;;;;;;;;;;;;;;20.92;59.71;101430.19;7403047;19;1747;-36
2022/10/19 01:05:44;;;;;;;;;;;;;;;21.25;58.55;101430.94;7403983;19;1059;-35
2022/10/19 01:08:13;;;;;;;;;;;;;;;21.56;58.17;101417.50;7402585;19;1728;-35
2022/10/19 01:10:46;;;;;;;;;;;;;;;22.13;57.05;101426.69;7402094;19;1851;-36
2022/10/19 01:13:21;;;;;;;;;;;;;;;21.88;57.35;101417.28;7402414;19;1650;-36
2022/10/19 01:15:56;;;;;;;;;;;;;;;21.43;58.96;101429.34;7402820;19;1743;-36
2022/10/19 01:18:30;;;;;;;;;;;;;;;21.20;59.40;101415.19;7403077;19;1675;-36
2022/10/19 01:21:13;;;;;;;;;;;;;;;21.44;58.60;101412.19;7402945;19;1875;-36
2022/10/19 01:23:56;;;;;;;;;;;;;;;21.37;59.26;101415.56;7401804;19;1914;-36
2022/10/19 01:26:37;;;;;;;;;;;;;;;21.18;59.37;101419.00;7401698;19;1653;-36
2022/10/19 01:29:10;;;;;;;;;;;;;;;21.34;58.96;101407.75;7402272;19;1753;-36
2022/10/19 01:31:45;;;;;;;;;;;;;;;21.51;58.66;101409.00;7400959;19;1838;-38
2022/10/19 01:34:17;;;;;;;;;;;;;;;21.39;59.32;101406.38;7403345;19;1822;-36
2022/10/19 01:36:48;;;;;;;;;;;;;;;21.18;59.49;101405.56;7403432;19;1817;-36
2022/10/19 01:39:22;;;;;;;;;;;;;;;21.37;58.80;101407.50;7402216;19;1753;-36
2022/10/19 01:41:52;;;;;;;;;;;;;;;21.56;58.54;101390.59;7402272;19;1716;-36
2022/10/19 01:44:24;;;;;;;;;;;;;;;21.48;58.79;101390.41;7402032;19;1575;-36
2022/10/19 01:46:57;;;;;;;;;;;;;;;21.24;59.18;101391.56;7401499;19;1916;-36
2022/10/19 01:49:28;;;;;;;;;;;;;;;21.30;59.15;101379.44;7401955;19;1781;-36
2022/10/19 01:51:58;;;;;;;;;;;;;;;21.49;58.61;101409.13;7401397;19;1931;-36
2022/10/19 01:54:29;;;;;;;;;;;;;;;21.44;59.46;101397.91;7401808;19;1653;-36
2022/10/19 01:57:00;;;;;;;;;;;;;;;21.23;59.34;101389.88;7401367;19;1956;-36
2022/10/19 01:59:29;;;;;;;;;;;;;;;21.33;58.90;101385.38;7401702;19;1806;-36
2022/10/19 02:02:00;;;;;;;;;;;;;;;21.64;58.19;101388.06;7395771;19;3564;-64
2022/10/19 02:04:28;;;;;;;;;;;;;;;21.55;58.86;101399.66;7403114;19;1679;-65
2022/10/19 02:06:57;;;;;;;;;;;;;;;21.39;59.04;101410.91;7402213;19;1481;-65
2022/10/19 02:09:25;;;;;;;;;;;;;;;21.28;59.32;101398.38;7405513;19;1532;-64
2022/10/19 02:11:56;;;;;;;;;;;;;;;21.54;58.43;101398.78;7400956;19;1908;-65
2022/10/19 02:14:27;;;;;;;;;;;;;;;21.52;58.38;101397.22;7404766;19;1607;-64
2022/10/19 02:16:59;;;;;;;;;;;;;;;21.45;58.67;101405.00;7403035;19;1541;-65
2022/10/19 02:19:29;;;;;;;;;;;;;;;21.14;59.13;101393.38;7404118;19;1426;-65
2022/10/19 02:21:58;;;;;;;;;;;;;;;21.53;58.71;101390.88;7406019;19;1516;-64
2022/10/19 02:24:27;;;;;;;;;;;;;;;21.64;58.06;101393.44;7405601;19;1033;-64
2022/10/19 02:26:55;;;;;;;;;;;;;;;21.51;58.46;101403.63;7403634;19;1490;-65
2022/10/19 02:29:24;;;;;;;;;;;;;;;21.25;59.05;101401.34;7402772;19;1663;-64
2022/10/19 02:31:52;;;;;;;;;;;;;;;21.52;58.53;101389.16;7401371;19;1873;-64
2022/10/19 02:34:20;;;;;;;;;;;;;;;21.71;57.85;101405.38;7403818;19;1523;-61
2022/10/19 02:36:52;;;;;;;;;;;;;;;21.57;58.37;101398.53;7403034;19;1524;-60
2022/10/19 02:39:21;;;;;;;;;;;;;;;21.26;58.87;101386.91;7403163;19;1665;-60
2022/10/19 02:41:52;;;;;;;;;;;;;;;21.56;58.51;101393.28;7402066;19;1475;-60
2022/10/19 02:44:23;;;;;;;;;;;;;;;21.64;57.77;101382.66;7402699;19;1651;-60
2022/10/19 02:46:53;;;;;;;;;;;;;;;21.55;58.40;101383.50;7403851;19;1539;-60
2022/10/19 02:49:22;;;;;;;;;;;;;;;21.30;58.82;101401.78;7403104;19;1532;-60
2022/10/19 02:52:03;;;;;;;;;;;;;;;21.48;58.48;101417.31;7401765;19;1852;-60
2022/10/19 02:54:32;;;;;;;;;;;;;;;21.62;58.17;101384.66;7403575;19;1388;-60
2022/10/19 02:57:00;;;;;;;;;;;;;;;21.59;58.32;101395.72;7403350;19;1627;-60
2022/10/19 02:59:29;;;;;;;;;;;;;;;21.32;58.50;101393.59;7403048;19;1500;-63
2022/10/19 03:01:57;;;;;;;;;;;;;;;21.42;58.46;101413.31;7402851;19;1442;-64
2022/10/19 03:04:25;;;;;;;;;;;;;;;21.62;57.82;101390.03;7402720;19;1706;-65
2022/10/19 03:06:54;;;;;;;;;;;;;;;21.59;58.06;101385.78;7399298;19;1676;-64
2022/10/19 03:09:24;;;;;;;;;;;;;;;21.39;58.31;101384.00;7403112;19;1773;-64
2022/10/19 03:11:53;;;;;;;;;;;;;;;21.41;58.82;101393.63;7401093;19;1857;-64
2022/10/19 03:14:21;;;;;;;;;;;;;;;21.68;57.95;101378.72;7403620;19;1606;-64
2022/10/19 03:16:49;;;;;;;;;;;;;;;21.65;57.91;101362.84;7402673;19;1509;-64
2022/10/19 03:19:18;;;;;;;;;;;;;;;21.52;58.05;101373.00;7400836;19;1401;-64
2022/10/19 03:21:46;;;;;;;;;;;;;;;21.26;58.66;101376.16;7404264;19;1600;-65
2022/10/19 03:24:14;;;;;;;;;;;;;;;21.64;58.18;101377.28;7410609;19;1534;-64
2022/10/19 03:26:45;;;;;;;;;;;;;;;21.67;57.58;101378.88;7409387;19;1909;-64
2022/10/19 03:29:14;;;;;;;;;;;;;;;21.65;58.17;101379.00;7407648;19;1455;-64
2022/10/19 03:31:42;;;;;;;;;;;;;;;21.37;58.51;101373.38;7408282;19;1850;-64
2022/10/19 03:34:10;;;;;;;;;;;;;;;21.32;58.77;101377.44;7408290;19;1776;-64
2022/10/19 03:36:40;;;;;;;;;;;;;;;21.53;57.85;101363.97;7408734;19;1928;-64
2022/10/19 03:39:09;;;;;;;;;;;;;;;21.57;57.90;101365.38;7410337;19;1630;-64
2022/10/19 03:41:38;;;;;;;;;;;;;;;21.49;58.08;101352.63;7409227;19;1737;-64
2022/10/19 03:44:10;;;;;;;;;;;;;;;21.25;58.59;101355.63;7408257;19;1336;-64
2022/10/19 03:46:39;;;;;;;;;;;;;;;21.39;58.20;101363.31;7408597;19;1559;-65
2022/10/19 03:49:07;;;;;;;;;;;;;;;21.63;57.62;101349.53;7409000;19;1533;-63
2022/10/19 03:51:36;;;;;;;;;;;;;;;21.47;58.14;101351.91;7408277;19;1874;-68
2022/10/19 03:54:06;;;;;;;;;;;;;;;21.55;58.21;101362.84;7406280;19;1683;-66
2022/10/19 03:56:35;;;;;;;;;;;;;;;21.71;57.98;101335.38;7409790;19;1574;-69
2022/10/19 03:59:05;;;;;;;;;;;;;;;21.68;57.90;101341.03;7407076;19;1953;-65
2022/10/19 04:01:37;;;;;;;;;;;;;;;21.56;57.94;101352.91;7407552;19;1066;-68
2022/10/19 04:04:06;;;;;;;;;;;;;;;21.58;58.69;101342.84;7408602;19;1765;-63
2022/10/19 04:06:36;;;;;;;;;;;;;;;21.71;57.95;101338.06;7408384;19;1513;-63
2022/10/19 04:09:05;;;;;;;;;;;;;;;21.86;58.06;101360.03;7407855;19;1690;-62
2022/10/19 04:11:34;;;;;;;;;;;;;;;21.71;58.52;101337.22;7407614;19;1858;-64
2022/10/19 04:14:03;;;;;;;;;;;;;;;21.48;59.45;101333.91;7408765;19;1343;-66
2022/10/19 04:16:32;;;;;;;;;;;;;;;21.51;59.36;101333.66;7403462;19;1687;-67
2022/10/19 04:19:03;;;;;;;;;;;;;;;21.93;58.25;101336.13;7406363;19;1145;-65
2022/10/19 04:21:32;;;;;;;;;;;;;;;22.05;58.13;101337.66;7404285;19;1233;-64
2022/10/19 04:24:01;;;;;;;;;;;;;;;21.69;59.36;101331.13;7408337;19;1504;-62
2022/10/19 04:26:30;;;;;;;;;;;;;;;21.44;60.27;101336.03;7406552;19;1520;-65
2022/10/19 04:28:59;;;;;;;;;;;;;;;21.71;59.78;101343.44;7407311;19;1506;-68
2022/10/19 04:31:28;;;;;;;;;;;;;;;22.05;58.89;101337.66;7406357;19;1842;-72
2022/10/19 04:33:56;;;;;;;;;;;;;;;22.15;59.21;101333.13;7401917;19;1687;-64
2022/10/19 04:36:27;;;;;;;;;;;;;;;21.79;59.80;101338.22;7407734;19;1367;-65
2022/10/19 04:38:55;;;;;;;;;;;;;;;21.55;61.06;101330.53;7404895;19;1501;-66
2022/10/19 04:41:24;;;;;;;;;;;;;;;21.95;60.13;101328.75;7406005;19;1657;-64
2022/10/19 04:43:56;;;;;;;;;;;;;;;22.25;59.97;101333.16;7406187;19;1708;-63
2022/10/19 04:46:25;;;;;;;;;;;;;;;22.07;60.36;101324.06;7404929;19;1662;-61
2022/10/19 04:48:53;;;;;;;;;;;;;;;21.79;60.92;101322.06;7404628;19;1403;-60
2022/10/19 04:51:22;;;;;;;;;;;;;;;21.67;61.10;101333.13;7406790;19;1868;-63
2022/10/19 04:53:55;;;;;;;;;;;;;;;21.83;60.78;101320.78;7402666;19;1797;-72
2022/10/19 04:56:25;;;;;;;;;;;;;;;22.09;60.33;101330.16;7403663;19;1620;-69
2022/10/19 04:58:55;;;;;;;;;;;;;;;21.86;61.03;101330.41;7405979;19;1822;-71
2022/10/19 05:01:24;;;;;;;;;;;;;;;21.68;60.42;101330.25;7405153;19;1298;-69
2022/10/19 05:03:55;;;;;;;;;;;;;;;21.54;61.51;101325.28;7405242;19;1450;-66
2022/10/19 05:06:23;;;;;;;;;;;;;;;21.93;60.06;101323.50;7405735;19;1495;-64
2022/10/19 05:08:54;;;;;;;;;;;;;;;21.88;60.12;101316.81;7405796;19;1185;-64
2022/10/19 05:11:23;;;;;;;;;;;;;;;21.81;60.49;101324.63;7404144;19;1870;-65
2022/10/19 05:13:51;;;;;;;;;;;;;;;21.67;60.92;101328.56;7404799;19;1451;-65
2022/10/19 05:16:21;;;;;;;;;;;;;;;21.60;61.54;101328.25;7404690;19;1343;-64
2022/10/19 05:18:50;;;;;;;;;;;;;;;21.99;60.59;101322.06;7404521;19;1427;-64
2022/10/19 05:21:20;;;;;;;;;;;;;;;21.97;60.35;101319.53;7405160;19;1271;-65
2022/10/19 05:23:49;;;;;;;;;;;;;;;21.81;60.50;101327.31;7402702;19;1422;-64
2022/10/19 05:26:21;;;;;;;;;;;;;;;21.79;60.72;101315.84;7403012;19;1632;-62
2022/10/19 05:28:49;;;;;;;;;;;;;;;21.72;61.20;101320.91;7403293;19;1430;-64
2022/10/19 05:31:18;;;;;;;;;;;;;;;22.12;60.08;101311.84;7403801;19;1351;-64
2022/10/19 05:33:47;;;;;;;;;;;;;;;22.17;59.95;101314.97;7403523;19;1355;-66
2022/10/19 05:36:17;;;;;;;;;;;;;;;22.22;60.03;101318.09;7406478;19;1446;-66
2022/10/19 05:38:47;;;;;;;;;;;;;;;22.00;60.56;101310.31;7403634;19;1747;-66
2022/10/19 05:41:16;;;;;;;;;;;;;;;21.95;61.29;101312.59;7403034;19;1383;-64
2022/10/19 05:43:47;;;;;;;;;;;;;;;22.02;60.74;101311.00;7404068;19;1464;-64
2022/10/19 05:46:17;;;;;;;;;;;;;;;22.15;57.69;101316.97;7402269;19;1449;-67
2022/10/19 05:48:45;;;;;;;;;;;;;;;22.10;55.71;101311.13;7402830;19;1499;-68
2022/10/19 05:51:15;;;;;;;;;;;;;;;21.95;59.18;101315.28;7402508;19;1347;-68
2022/10/19 05:53:43;;;;;;;;;;;;;;;21.87;59.16;101307.06;7403172;19;1857;-69
2022/10/19 05:56:15;;;;;;;;;;;;;;;21.87;59.86;101304.38;7404417;19;1397;-69
2022/10/19 05:58:44;;;;;;;;;;;;;;;22.38;58.64;101305.91;7403479;19;1360;-67
2022/10/19 06:01:17;;;;;;;;;;;;;;;22.33;58.58;101297.41;7402952;19;1536;-69
2022/10/19 06:03:46;;;;;;;;;;;;;;;22.16;59.62;101299.81;7402476;19;1524;-67
2022/10/19 06:06:14;;;;;;;;;;;;;;;22.07;60.16;101303.38;7403889;19;1393;-66
2022/10/19 06:08:43;;;;;;;;;;;;;;;21.93;59.86;101306.50;7403753;19;1684;-67
2022/10/19 06:11:12;;;;;;;;;;;;;;;22.43;59.05;101301.78;7403617;19;1683;-66
2022/10/19 06:13:41;;;;;;;;;;;;;;;22.65;58.39;101294.34;7399878;19;1901;-66
2022/10/19 06:16:10;;;;;;;;;;;;;;;22.54;58.99;101300.78;7402413;19;1602;-68
2022/10/19 06:18:41;;;;;;;;;;;;;;;22.32;59.07;101322.63;7403132;19;1636;-67
2022/10/19 06:21:12;;;;;;;;;;;;;;;22.15;59.64;101295.41;7404695;19;1478;-69
2022/10/19 06:23:40;;;;;;;;;;;;;;;22.08;59.74;101305.03;7401878;19;1446;-68
2022/10/19 06:26:09;;;;;;;;;;;;;;;22.52;59.25;101292.00;7402019;19;1558;-72
2022/10/19 06:28:38;;;;;;;;;;;;;;;22.66;58.92;101297.88;7402746;19;1894;-68
2022/10/19 06:31:07;;;;;;;;;;;;;;;22.37;60.01;101298.81;7401905;19;1523;-69
2022/10/19 06:33:35;;;;;;;;;;;;;;;22.19;60.36;101296.81;7399310;19;1854;-68
2022/10/19 06:36:10;;;;;;;;;;;;;;;22.19;60.65;101306.75;7404034;19;1509;-65
2022/10/19 06:38:38;;;;;;;;;;;;;;;22.18;60.85;101299.66;7402481;19;1510;-68
2022/10/19 06:41:06;;;;;;;;;;;;;;;22.69;59.67;101284.97;7401856;19;1742;-67
2022/10/19 06:43:35;;;;;;;;;;;;;;;22.90;59.12;101290.16;7402800;19;1269;-67
2022/10/19 06:46:05;;;;;;;;;;;;;;;22.73;59.71;101294.47;7402552;19;1313;-70
2022/10/19 06:48:34;;;;;;;;;;;;;;;22.52;60.13;101275.81;7404451;19;1406;-67
2022/10/19 06:51:05;;;;;;;;;;;;;;;22.47;60.63;101290.72;7397055;19;1651;-67
2022/10/19 06:53:36;;;;;;;;;;;;;;;22.33;60.32;101270.47;7405976;19;1857;-62
2022/10/19 06:56:06;;;;;;;;;;;;;;;22.31;61.43;101273.31;7404144;19;1625;-62
2022/10/19 06:58:36;;;;;;;;;;;;;;;22.22;61.50;101261.53;7412818;19;1394;-71
2022/10/19 07:01:06;;;;;;;;;;;;;;;22.23;61.62;101282.06;7411419;19;1171;-68
2022/10/19 07:03:34;;;;;;;;;;;;;;;22.27;61.61;101276.44;7411697;19;1337;-61
2022/10/19 07:06:04;;;;;;;;;;;;;;;22.36;61.53;101284.50;7410967;19;1504;-71
2022/10/19 07:08:33;;;;;;;;;;;;;;;22.32;61.46;101274.16;7410776;19;1406;-76
2022/10/19 07:11:07;;;;;;;;;;;;;;;22.30;61.78;101284.22;7406815;19;1337;-60
2022/10/19 07:13:36;;;;;;;;;;;;;;;22.32;62.10;101274.16;7404829;19;1854;-65
2022/10/19 07:16:06;;;;;;;;;;;;;;;22.31;62.16;101273.31;7407631;19;1269;-59
2022/10/19 07:18:35;;;;;;;;;;;;;;;22.18;62.01;101268.19;7407945;19;1324;-60
2022/10/19 07:21:05;;;;;;;;;;;;;;;22.23;62.67;101273.16;7407957;19;1775;-59
2022/10/19 07:23:34;;;;;;;;;;;;;;;22.23;62.52;101265.91;7407395;19;1676;-59
2022/10/19 07:26:10;;;;;;;;;;;;;;;22.18;62.43;101262.81;7407674;19;1398;-59
2022/10/19 07:28:39;;;;;;;;;;;;;;;22.20;63.10;101260.81;7405541;19;1285;-59
2022/10/19 07:31:08;;;;;;;;;;;;;;;22.18;62.68;101262.81;7407208;19;1364;-58
2022/10/19 07:33:37;;;;;;;;;;;;;;;21.78;55.50;101228.81;7405571;19;1857;-59
2022/10/19 07:36:06;;;;;;;;;;;;;;;21.77;59.72;101243.28;7410697;19;1485;-59
2022/10/19 07:38:35;;;;;;;;;;;;;;;21.65;57.32;101234.50;7409222;19;1623;-64
2022/10/19 07:41:05;;;;;;;;;;;;;;;21.52;55.14;101227.69;7409000;19;1726;-72
2022/10/19 07:43:36;;;;;;;;;;;;;;;21.43;52.42;101230.25;7409235;19;1515;-59
2022/10/19 07:46:06;;;;;;;;;;;;;;;21.30;51.02;101216.16;7406042;19;1544;-59
2022/10/19 07:48:35;;;;;;;;;;;;;;;21.33;52.28;101231.16;7407746;19;1504;-59
2022/10/19 07:51:04;;;;;;;;;;;;;;;21.32;50.21;101226.81;7409315;19;1647;-59
2022/10/19 07:53:33;;;;;;;;;;;;;;;21.40;53.04;101219.72;7407036;19;1887;-59
2022/10/19 07:56:04;;;;;;;;;;;;;;;21.35;50.13;101224.69;7408261;19;1623;-59
2022/10/19 07:58:33;;;;;;;;;;;;;;;21.16;48.50;101227.34;7406972;19;1402;-59
2022/10/19 08:01:05;;;;;;;;;;;;;;;21.08;47.46;101219.13;7407946;19;1599;-59
2022/10/19 08:03:34;;;;;;;;;;;;;;;21.12;47.69;101212.47;7405808;19;1535;-59
2022/10/19 08:06:02;;;;;;;;;;;;;;;21.10;46.65;101209.91;7407758;19;1530;-59
2022/10/19 08:08:31;;;;;;;;;;;;;;;21.01;47.74;101224.22;7407323;19;1726;-59
2022/10/19 08:10:59;;;;;;;;;;;;;;;20.97;45.93;101215.56;7407303;19;1591;-59
2022/10/19 08:13:28;;;;;;;;;;;;;;;20.90;44.95;101225.16;7405146;19;1864;-59
2022/10/19 08:15:56;;;;;;;;;;;;;;;20.84;43.95;101225.69;7406969;19;1642;-60
2022/10/19 08:18:27;;;;;;;;;;;;;;;20.92;44.44;101220.47;7408147;19;1655;-59
2022/10/19 08:20:55;;;;;;;;;;;;;;;20.79;44.49;101219.88;7408224;19;1674;-59
2022/10/19 08:23:26;;;;;;;;;;;;;;;20.81;44.15;101216.06;7406602;19;1902;-59
2022/10/19 08:25:58;;;;;;;;;;;;;;;20.81;44.02;101224.13;7406957;19;1536;-59
2022/10/19 08:28:27;;;;;;;;;;;;;;;20.81;45.10;101236.72;7407105;19;1590;-59
2022/10/19 08:30:57;;;;;;;;;;;;;;;20.79;44.48;101236.88;7405323;19;1411;-59
2022/10/19 08:33:28;;;;;;;;;;;;;;;20.74;44.05;101211.38;7405758;19;1869;-59
2022/10/19 08:35:57;;;;;;;;;;;;;;;20.75;44.29;101245.31;7408319;19;1610;-72
2022/10/19 08:38:25;;;;;;;;;;;;;;;20.82;44.14;101219.59;7405723;19;1754;-72
2022/10/19 08:40:54;;;;;;;;;;;;;;;20.89;44.55;101230.66;7407627;19;1592;-72
2022/10/19 08:43:27;;;;;;;;;;;;;;;20.81;44.36;101220.59;7407101;19;1532;-72
2022/10/19 08:46:02;;;;;;;;;;;;;;;20.69;43.44;101230.59;7407159;19;1598;-72
2022/10/19 08:48:35;;;;;;;;;;;;;;;20.59;43.52;101222.50;7405918;19;1200;-73
2022/10/19 08:51:04;;;;;;;;;;;;;;;20.55;42.90;101237.16;7409291;19;1729;-72
2022/10/19 08:53:37;;;;;;;;;;;;;;;20.50;42.69;101225.13;7405868;19;1863;-72
2022/10/19 08:56:22;;;;;;;;;;;;;;;20.42;42.36;101244.59;7406788;19;1726;-71
2022/10/19 08:58:58;;;;;;;;;;;;;;;20.41;42.12;101234.81;7406189;19;1424;-72
2022/10/19 09:01:32;;;;;;;;;;;;;;;20.43;42.10;101235.53;7406768;19;1636;-73
2022/10/19 09:04:05;;;;;;;;;;;;;;;20.42;42.13;101223.09;7406663;19;1548;-72
2022/10/19 09:06:36;;;;;;;;;;;;;;;20.48;42.04;101227.09;7405214;19;1437;-72
2022/10/19 09:09:06;;;;;;;;;;;;;;;20.54;42.14;101235.44;7407248;19;1496;-72
2022/10/19 09:11:40;;;;;;;;;;;;;;;20.48;41.70;101227.09;7408111;19;1204;-72
2022/10/19 09:14:17;;;;;;;;;;;;;;;20.52;42.32;101233.88;7406200;19;1868;-73
2022/10/19 09:16:45;;;;;;;;;;;;;;;20.54;41.62;101221.16;7407180;19;1484;-72
2022/10/19 09:19:20;;;;;;;;;;;;;;;20.46;41.48;101227.22;7405395;19;1446;-73
2022/10/19 09:21:51;;;;;;;;;;;;;;;20.51;41.86;101238.38;7405907;19;1321;-72
2022/10/19 09:24:28;;;;;;;;;;;;;;;20.54;41.90;101213.09;7405774;19;1606;-72
2022/10/19 09:26:58;;;;;;;;;;;;;;;20.58;42.04;101211.84;7406361;19;1567;-72
2022/10/19 09:29:29;;;;;;;;;;;;;;;20.61;42.23;101211.59;7405396;19;1522;-72
2022/10/19 09:32:00;;;;;;;;;;;;;;;20.63;41.80;101202.44;7405827;19;1629;-72
2022/10/19 09:34:33;;;;;;;;;;;;;;;20.65;41.99;101204.97;7404394;19;1850;-72
2022/10/19 09:37:01;;;;;;;;;;;;;;;20.68;42.17;101214.63;7406513;19;1496;-71
2022/10/19 09:39:31;;;;;;;;;;;;;;;20.71;43.50;101196.38;7408307;19;1012;-66
2022/10/19 09:42:01;;;;;;;;;;;;;;;20.86;43.75;101199.53;7406860;19;1752;-74
2022/10/19 09:44:29;;;;;;;;;;;;;;;21.06;44.33;101201.25;7406047;19;1573;-73
2022/10/19 09:47:04;;;;;;;;;;;;;;;21.15;43.48;101198.72;7408139;19;1547;-76
2022/10/19 09:49:45;;;;;;;;;;;;;;;21.19;44.55;101192.13;7406199;19;1497;-74
2022/10/19 09:52:24;;;;;;;;;;;;;;;21.19;44.87;101195.66;7406236;19;1406;-74
2022/10/19 09:55:00;;;;;;;;;;;;;;;21.22;45.29;101183.75;7405949;19;1854;-75
2022/10/19 09:57:29;;;;;;;;;;;;;;;21.23;46.47;101197.06;7407155;19;1500;-76
2022/10/19 09:59:57;;;;;;;;;;;;;;;21.18;46.19;101172.41;7405120;19;1459;-72
2022/10/19 10:02:30;;;;;;;;;;;;;;;21.23;46.67;101174.69;7402525;19;1889;-71
2022/10/19 10:05:05;;;;;;;;;;;;;;;21.25;46.74;101178.94;7405539;19;1631;-72
2022/10/19 10:07:35;;;;;;;;;;;;;;;21.38;47.21;101194.78;7403549;19;1464;-70
2022/10/19 10:10:04;;;;;;;;;;;;;;;21.42;47.17;101185.44;7404837;19;1524;-73
2022/10/19 10:12:32;;;;;;;;;;;;;;;21.39;48.01;101183.06;7405395;19;1626;-68
2022/10/19 10:15:01;;;;;;;;;;;;;;;21.59;48.77;101150.81;7402943;19;2124;-67
2022/10/19 10:17:31;;;;;;;;;;;;;;;21.71;49.43;101151.50;7404696;19;1268;-68
2022/10/19 10:20:22;;;;;;;;;;;;;;;21.61;49.43;101164.97;7404379;19;1647;-65
2022/10/19 10:22:58;;;;;;;;;;;;;;;21.65;49.53;101156.44;7405533;19;1512;-71
2022/10/19 10:25:28;;;;;;;;;;;;;;;21.63;49.54;101147.66;7404249;19;1529;-70
2022/10/19 10:27:58;;;;;;;;;;;;;;;21.52;50.16;101136.22;7404176;19;1623;-71
2022/10/19 10:30:28;;;;;;;;;;;;;;;21.56;49.97;101132.22;7402415;19;1324;-70
2022/10/19 10:32:56;;;;;;;;;;;;;;;21.56;50.49;101133.06;7409105;19;1544;-67
2022/10/19 10:35:26;;;;;;;;;;;;;;;21.53;50.32;101127.16;7410631;19;1509;-65
2022/10/19 10:38:05;;;;;;;;;;;;;;;21.54;50.72;101128.84;7410054;19;1705;-75
2022/10/19 10:40:33;;;;;;;;;;;;;;;21.59;50.54;101115.81;7410476;19;1568;-70
2022/10/19 10:43:06;;;;;;;;;;;;;;;21.57;50.62;101115.13;7411783;19;1618;-68
2022/10/19 10:45:35;;;;;;;;;;;;;;;21.56;51.30;101099.94;7409524;19;1699;-61
2022/10/19 10:48:14;;;;;;;;;;;;;;;21.55;52.06;101106.34;7410408;19;1438;-69
2022/10/19 10:50:42;;;;;;;;;;;;;;;21.59;52.03;101095.13;7410942;19;1402;-68
2022/10/19 10:53:34;;;;;;;;;;;;;;;21.53;52.34;101095.72;7410036;19;1853;-67
2022/10/19 10:56:03;;;;;;;;;;;;;;;21.53;52.05;101078.72;7409515;19;1630;-66
2022/10/19 10:58:36;;;;;;;;;;;;;;;21.53;52.19;101078.72;7409406;19;1670;-67
2022/10/19 11:01:07;;;;;;;;;;;;;;;21.56;52.61;101087.31;7409480;19;1578;-68
2022/10/19 11:03:37;;;;;;;;;;;;;;;21.55;52.88;101076.72;7407427;19;2704;-65
2022/10/19 11:06:05;;;;;;;;;;;;;;;21.55;53.15;101056.03;7411140;19;1418;-68
2022/10/19 11:08:41;;;;;;;;;;;;;;;21.60;52.84;101069.06;7409526;19;1731;-70
2022/10/19 11:11:16;;;;;;;;;;;;;;;21.59;52.46;101062.00;7408692;19;1508;-74
2022/10/19 11:13:48;;;;;;;;;;;;;;;21.62;52.75;101064.38;7409870;19;1850;-64
2022/10/19 11:16:17;;;;;;;;;;;;;;;21.66;53.46;101065.78;7409961;19;1326;-70
2022/10/19 11:18:49;;;;;;;;;;;;;;;21.62;53.34;101050.91;7408308;19;1307;-69
2022/10/19 11:21:20;;;;;;;;;;;;;;;21.63;53.23;101071.47;7409786;19;1190;-72
2022/10/19 11:23:56;;;;;;;;;;;;;;;21.61;53.64;101057.31;7410237;19;1612;-70
2022/10/19 11:26:34;;;;;;;;;;;;;;;21.59;53.77;101045.84;7408389;19;1301;-68
2022/10/19 11:29:11;;;;;;;;;;;;;;;21.64;54.03;101055.16;7410487;19;1557;-62
2022/10/19 11:31:44;;;;;;;;;;;;;;;21.71;53.92;101036.59;7408268;19;1664;-59
2022/10/19 11:34:21;;;;;;;;;;;;;;;21.68;54.03;101038.72;7406967;19;1846;-61
2022/10/19 11:36:54;;;;;;;;;;;;;;;21.56;53.45;101032.66;7410257;19;1466;-61
2022/10/19 11:39:33;;;;;;;;;;;;;;;21.53;54.26;101031.13;7405443;19;1933;-65
2022/10/19 11:42:06;;;;;;;;;;;;;;;21.48;54.25;101037.94;7408929;19;1578;-64
2022/10/19 11:44:40;;;;;;;;;;;;;;;21.47;54.33;101033.53;7409063;19;1688;-64
2022/10/19 11:47:28;;;;;;;;;;;;;;;21.36;55.35;101029.97;7410327;19;1745;-64
2022/10/19 11:50:03;;;;;;;;;;;;;;;21.38;55.14;101033.38;7410390;19;1746;-66
2022/10/19 11:52:37;;;;;;;;;;;;;;;21.35;54.05;101017.53;7408160;19;1638;-65
2022/10/19 11:55:13;;;;;;;;;;;;;;;21.37;54.47;101010.19;7406312;19;1865;-68
2022/10/19 11:57:46;;;;;;;;;;;;;;;21.38;54.32;101030.69;7410331;19;1623;-66
2022/10/19 12:00:18;;;;;;;;;;;;;;;21.28;54.29;101012.88;7410287;19;1553;-65
2022/10/19 12:03:01;;;;;;;;;;;;;;;21.30;54.43;101017.13;7408791;19;1308;-64
2022/10/19 12:05:32;;;;;;;;;;;;;;;21.30;54.71;101025.19;7409980;19;1117;-64
2022/10/19 12:08:06;;;;;;;;;;;;;;;21.29;54.70;101014.56;7405165;19;1726;-65
2022/10/19 12:10:41;;;;;;;;;;;;;;;21.25;55.20;101005.97;7408582;19;1561;-68
2022/10/19 12:13:12;;;;;;;;;;;;;;;21.22;55.15;101007.06;7409055;19;1638;-67
2022/10/19 12:15:43;;;;;;;;;;;;;;;21.24;54.76;101006.94;7406088;19;1859;-68
2022/10/19 12:18:16;;;;;;;;;;;;;;;21.24;54.82;101004.25;7409426;19;1584;-69
2022/10/19 12:20:46;;;;;;;;;;;;;;;21.26;53.68;100996.88;7409406;19;1669;-67
2022/10/19 12:23:24;;;;;;;;;;;;;;;21.25;54.62;101016.72;7407472;19;1695;-66
2022/10/19 12:25:56;;;;;;;;;;;;;;;21.23;55.10;100997.19;7405483;19;1708;-66
2022/10/19 12:28:28;;;;;;;;;;;;;;;21.26;53.03;100997.72;7406274;19;1400;-69
2022/10/19 12:30:57;;;;;;;;;;;;;;;21.36;53.40;100983.41;7405957;19;1625;-65
2022/10/19 12:33:28;;;;;;;;;;;;;;;21.45;52.66;100993.34;7407315;19;1519;-68
2022/10/19 12:36:01;;;;;;;;;;;;;;;21.36;53.82;100978.88;7406821;19;1858;-67
2022/10/19 12:38:35;;;;;;;;;;;;;;;21.30;54.28;100982.16;7407255;19;1707;-66
2022/10/19 12:41:10;;;;;;;;;;;;;;;21.34;52.52;100980.03;7407261;19;1668;-68
2022/10/19 12:43:42;;;;;;;;;;;;;;;21.35;53.23;100985.25;7406529;19;1278;-68
2022/10/19 12:46:16;;;;;;;;;;;;;;;21.39;52.78;100975.91;7404523;19;1378;-66
2022/10/19 12:48:44;;;;;;;;;;;;;;;21.38;52.24;100971.50;7406714;19;1481;-68
2022/10/19 12:51:14;;;;;;;;;;;;;;;21.39;52.85;100965.16;7407025;19;1408;-70
2022/10/19 12:53:44;;;;;;;;;;;;;;;21.41;53.39;100978.47;7404063;19;1690;-67
2022/10/19 12:56:19;;;;;;;;;;;;;;;21.51;53.04;100967.69;7405590;19;1680;-67
2022/10/19 12:58:51;;;;;;;;;;;;;;;21.36;54.11;100960.03;7406078;19;1623;-67
2022/10/19 13:01:22;;;;;;;;;;;;;;;21.35;53.61;100961.06;7403521;19;1755;-67
2022/10/19 13:03:53;;;;;;;;;;;;;;;21.57;54.42;100953.66;7407560;19;1629;-65
2022/10/19 13:06:32;;;;;;;;;;;;;;;21.63;54.06;100958.44;7406238;19;1613;-63